Terminal Aerodrome Forecast
Issued by NWS San Angelo, TX

Home | Current Version | Previous Version | Text Only | Print | Product List | Glossary On
Versions: 1 2 3 4 5 6 7 8 9 10 11 12 13 14 15 16 17
479
FTUS44 KSJT 200524
TAFABI
TAF
KABI 200524Z 2006/2106 22013KT P6SM SKC WS020/27045KT
     FM201200 23014G19KT P6SM SKC
     FM201800 23020G30KT P6SM SKC=

USA.gov is the U.S. government's official web portal to all federal, state and local government web resources and services.